Time;durP1;ratioP1;P1;durP2;ratioP2;P2;SDS_P1;SDS_P2;PMS_P1;PMS_P2;Temp;Humidity;BMP_temperature;BMP_pressure;BME280_temperature;BME280_humidity;BME280_pressure;Samples;Min_cycle;Max_cycle;Signal;HPM_P1;HPM_P2
2021/08/18 00:01:08;;;;;;;;;1.67;1.67;;;;;18.79;59.77;101738.16;5086284;27;45414;-86
2021/08/18 00:03:34;;;;;;;;;3.67;3.00;;;;;18.81;59.69;101747.03;5103239;27;48380;-88
2021/08/18 00:05:59;;;;;;;;;2.67;2.67;;;;;18.79;59.73;101738.16;5121894;27;45447;-88
2021/08/18 00:08:24;;;;;;;;;4.67;3.33;;;;;18.71;59.79;101724.84;5104410;27;45404;-89
2021/08/18 00:10:50;;;;;;;;;2.67;2.00;;;;;18.79;59.63;101738.16;5103369;27;45316;-88
2021/08/18 00:13:16;;;;;;;;;3.67;3.67;;;;;18.76;60.00;101730.19;5121064;27;46176;-87
2021/08/18 00:15:42;;;;;;;;;6.00;4.00;;;;;18.78;59.84;101732.81;5121402;27;45372;-87
2021/08/18 00:18:07;;;;;;;;;3.67;3.00;;;;;18.78;59.99;101731.06;5121051;27;45381;-89
2021/08/18 00:20:34;;;;;;;;;3.00;2.67;;;;;18.79;59.96;101734.59;5122365;27;45263;-89
2021/08/18 00:22:59;;;;;;;;;5.00;3.00;;;;;18.75;60.22;101729.28;5122357;27;45371;-87
2021/08/18 00:25:26;;;;;;;;;4.00;2.67;;;;;18.79;60.11;101729.25;5125555;27;45445;-87
2021/08/18 00:27:53;;;;;;;;;3.33;3.33;;;;;18.80;60.00;101731.94;5123650;27;45416;-87
2021/08/18 00:30:18;;;;;;;;;2.33;2.33;;;;;18.78;60.02;101719.50;5120805;27;45338;-87
2021/08/18 00:32:44;;;;;;;;;4.00;4.00;;;;;18.76;60.05;101724.84;5121350;27;46105;-87
2021/08/18 00:35:10;;;;;;;;;5.33;3.67;;;;;18.76;59.85;101722.19;5122463;27;45699;-88
2021/08/18 00:37:35;;;;;;;;;6.33;3.00;;;;;18.73;60.01;101716.84;5121481;27;45392;-90
2021/08/18 00:40:01;;;;;;;;;6.00;3.00;;;;;18.75;59.95;101715.97;5122283;27;45308;-87
2021/08/18 00:42:26;;;;;;;;;4.00;3.00;;;;;18.73;60.04;101716.84;5121308;27;45443;-86
2021/08/18 00:44:56;;;;;;;;;2.67;2.67;;;;;18.75;60.24;101723.97;5120672;27;45445;-87
2021/08/18 00:47:21;;;;;;;;;4.67;4.67;;;;;18.72;60.01;101710.63;5121550;27;45395;-87
2021/08/18 00:49:47;;;;;;;;;7.00;4.00;;;;;18.75;60.02;101720.41;5121147;27;45290;-87
2021/08/18 00:52:12;;;;;;;;;5.33;4.33;;;;;18.75;59.95;101721.28;5122030;27;45389;-87
2021/08/18 00:54:37;;;;;;;;;4.33;3.00;;;;;18.73;60.28;101714.19;5121961;27;45325;-86
2021/08/18 00:57:03;;;;;;;;;3.33;3.33;;;;;18.73;59.80;101716.84;5104037;27;45365;-87
2021/08/18 00:59:30;;;;;;;;;7.33;4.33;;;;;18.73;59.91;101707.09;5122884;27;45263;-91
2021/08/18 01:01:56;;;;;;;;;3.33;2.33;;;;;18.74;60.11;101715.97;5121836;27;46525;-88
2021/08/18 01:04:22;;;;;;;;;5.00;3.67;;;;;18.68;60.08;101710.63;5127717;27;45392;-87
2021/08/18 01:06:48;;;;;;;;;3.33;3.33;;;;;18.73;60.14;101720.41;5129716;27;45293;-90
2021/08/18 01:09:18;;;;;;;;;4.00;3.67;;;;;18.63;60.03;101700.84;5127907;27;45280;-89
2021/08/18 01:11:47;;;;;;;;;2.67;2.67;;;;;18.72;59.87;101715.94;5121050;27;45417;-88
2021/08/18 01:14:13;;;;;;;;;2.67;1.67;;;;;18.70;60.10;101711.50;5120419;27;45313;-86
2021/08/18 01:16:42;;;;;;;;;5.00;3.33;;;;;18.72;60.37;101723.03;5121022;27;45247;-88
2021/08/18 01:19:09;;;;;;;;;4.00;3.67;;;;;18.65;60.25;101705.31;5120730;27;45289;-88
2021/08/18 01:21:36;;;;;;;;;5.00;3.33;;;;;18.59;59.98;101692.91;5121162;27;45639;-89
2021/08/18 01:24:02;;;;;;;;;2.33;2.33;;;;;18.58;59.96;101696.44;5120617;27;45233;-88
2021/08/18 01:26:29;;;;;;;;;6.33;4.33;;;;;18.65;60.29;101707.97;5120384;27;45318;-88
2021/08/18 01:28:56;;;;;;;;;3.33;3.33;;;;;18.66;60.33;101699.97;5101948;27;45580;-89
2021/08/18 01:31:21;;;;;;;;;3.50;2.50;;;;;18.66;60.18;101696.41;5119593;27;46400;-89
2021/08/18 01:33:47;;;;;;;;;4.00;3.67;;;;;18.64;60.38;101699.09;5141880;27;44725;-86
2021/08/18 01:36:12;;;;;;;;;4.33;2.67;;;;;18.62;60.34;101695.53;5135052;27;45292;-88
2021/08/18 01:38:38;;;;;;;;;3.33;3.00;;;;;18.63;60.44;101694.66;5120919;27;45309;-87
2021/08/18 01:41:03;;;;;;;;;6.33;3.33;;;;;18.61;60.39;101686.66;5119792;27;45339;-88
2021/08/18 01:43:29;;;;;;;;;6.00;3.33;;;;;18.65;60.22;101692.91;5120131;27;45284;-88
2021/08/18 01:45:55;;;;;;;;;3.00;3.00;;;;;18.63;60.17;101690.22;5125736;27;45193;-88
2021/08/18 01:48:24;;;;;;;;;2.33;2.33;;;;;18.63;60.10;101690.22;5127976;27;45428;-86
2021/08/18 01:50:54;;;;;;;;;3.33;3.33;;;;;18.70;60.22;101696.41;5109568;27;45546;-88
2021/08/18 01:53:28;;;;;;;;;3.67;2.67;;;;;18.73;60.23;101706.19;5122727;27;45335;-89
2021/08/18 01:56:02;;;;;;;;;1.67;1.67;;;;;18.71;60.08;101699.97;5120166;27;45448;-86
2021/08/18 01:58:28;;;;;;;;;1.67;1.67;;;;;18.69;60.09;101705.31;5101580;27;45420;-86
2021/08/18 02:00:54;;;;;;;;;3.67;1.67;;;;;18.69;60.03;101699.09;5119663;27;46403;-87
2021/08/18 02:03:19;;;;;;;;;8.00;3.67;;;;;18.63;60.27;101695.53;5119477;27;45272;-88
2021/08/18 02:05:44;;;;;;;;;2.33;2.33;;;;;18.63;59.80;101690.22;5119674;27;45346;-89
2021/08/18 02:08:10;;;;;;;;;3.00;3.00;;;;;18.65;60.05;101692.00;5102267;27;45290;-86
2021/08/18 02:10:35;;;;;;;;;3.67;3.67;;;;;18.64;60.14;101696.44;5120874;27;46224;-87
2021/08/18 02:13:01;;;;;;;;;4.33;3.33;;;;;18.62;60.29;101693.78;5101246;27;45584;-90
2021/08/18 02:15:29;;;;;;;;;1.67;1.67;;;;;18.65;60.01;101694.66;5120320;27;45271;-91
2021/08/18 02:17:55;;;;;;;;;2.67;2.67;;;;;18.64;60.27;101691.09;5119925;27;45221;-87
2021/08/18 02:20:27;;;;;;;;;4.00;2.67;;;;;18.62;59.86;101688.44;5118762;27;45335;-88
2021/08/18 02:22:54;;;;;;;;;5.67;3.33;;;;;18.59;59.90;101693.75;5119509;27;45471;-87
2021/08/18 02:25:20;;;;;;;;;3.00;2.67;;;;;18.55;60.21;101681.34;5120189;27;45281;-88
2021/08/18 02:27:46;;;;;;;;;3.67;3.00;;;;;18.57;60.43;101676.03;5119220;27;45270;-87
2021/08/18 02:30:15;;;;;;;;;2.33;2.33;;;;;18.58;60.51;101684.03;5119219;27;45435;-87
2021/08/18 02:32:40;;;;;;;;;3.00;3.00;;;;;18.50;60.32;101665.41;5118612;27;45404;-88
2021/08/18 02:35:07;;;;;;;;;3.67;2.33;;;;;18.51;60.30;101666.25;5100713;27;45239;-86
2021/08/18 02:37:32;;;;;;;;;6.33;3.67;;;;;18.50;60.42;101668.06;5119428;27;45263;-87
2021/08/18 02:39:58;;;;;;;;;5.00;3.33;;;;;18.56;60.81;101677.81;5119505;27;45459;-88
2021/08/18 02:42:24;;;;;;;;;5.00;4.33;;;;;18.58;60.73;101677.78;5119605;27;45247;-86
2021/08/18 02:44:49;;;;;;;;;2.67;1.67;;;;;18.52;60.79;101668.06;5119166;27;45389;-86
2021/08/18 02:47:15;;;;;;;;;2.33;2.33;;;;;18.60;60.41;101676.03;5120185;27;45412;-85
2021/08/18 02:49:41;;;;;;;;;3.00;2.67;;;;;18.58;60.70;101676.03;5118751;27;45598;-87
2021/08/18 02:52:07;;;;;;;;;3.33;2.33;;;;;18.50;60.66;101661.84;5100547;27;45338;-85
2021/08/18 02:54:33;;;;;;;;;3.00;2.00;;;;;18.57;60.54;101676.03;5121950;27;45425;-90
2021/08/18 02:56:58;;;;;;;;;4.00;3.00;;;;;18.48;60.58;101661.84;5123175;27;45516;-87
2021/08/18 02:59:23;;;;;;;;;1.67;1.67;;;;;18.46;60.70;101660.06;5122666;27;46446;-88
2021/08/18 03:01:49;;;;;;;;;4.33;4.33;;;;;18.52;61.17;101674.28;5121389;27;45473;-88
2021/08/18 03:04:15;;;;;;;;;4.67;2.33;;;;;18.51;61.80;101674.25;5124006;27;45368;-89
2021/08/18 03:06:40;;;;;;;;;2.33;2.33;;;;;18.43;61.39;101671.59;5125101;27;45738;-87
2021/08/18 03:09:06;;;;;;;;;3.00;2.33;;;;;18.47;61.55;101672.47;5122753;27;45446;-88
2021/08/18 03:11:31;;;;;;;;;5.00;4.33;;;;;18.45;61.75;101671.59;5122738;27;45416;-88
2021/08/18 03:13:57;;;;;;;;;4.33;3.00;;;;;18.35;61.75;101657.41;5122260;27;45304;-88
2021/08/18 03:16:22;;;;;;;;;5.00;2.67;;;;;18.37;61.77;101659.19;5125350;27;45365;-86
2021/08/18 03:18:48;;;;;;;;;4.67;4.00;;;;;18.34;61.35;101652.97;5131990;27;46344;-86
2021/08/18 03:21:13;;;;;;;;;3.00;3.00;;;;;18.37;61.51;101658.28;5132030;27;45334;-85
2021/08/18 03:23:39;;;;;;;;;7.33;4.67;;;;;18.38;61.55;101668.06;5130656;27;45515;-88
2021/08/18 03:26:05;;;;;;;;;4.33;4.00;;;;;18.42;61.45;101668.94;5122225;27;45340;-87
2021/08/18 03:28:30;;;;;;;;;3.33;3.00;;;;;18.38;61.71;101658.28;5122221;27;46640;-89
2021/08/18 03:30:57;;;;;;;;;3.00;3.00;;;;;18.34;61.60;101656.50;5121235;27;45238;-86
2021/08/18 03:33:22;;;;;;;;;4.00;3.00;;;;;18.38;61.61;101660.94;5120988;27;45443;-87
2021/08/18 03:35:48;;;;;;;;;3.00;3.00;;;;;18.31;61.17;101653.88;5103586;27;45431;-87
2021/08/18 03:38:13;;;;;;;;;4.00;4.00;;;;;18.34;61.81;101661.84;5122195;27;46370;-87
2021/08/18 03:40:40;;;;;;;;;6.33;4.00;;;;;18.37;61.57;101667.16;5103281;27;45461;-89
2021/08/18 03:43:05;;;;;;;;;4.00;3.33;;;;;18.34;61.48;101656.50;5122083;27;45404;-89
2021/08/18 03:45:31;;;;;;;;;7.00;4.00;;;;;18.36;61.71;101665.38;5123601;27;45329;-86
2021/08/18 03:47:56;;;;;;;;;4.00;3.67;;;;;18.33;61.42;101665.41;5122213;27;46491;-86
2021/08/18 03:50:22;;;;;;;;;4.00;2.67;;;;;18.30;61.09;101665.38;5123111;27;45380;-90
2021/08/18 03:52:47;;;;;;;;;3.00;3.00;;;;;18.32;61.56;101663.59;5086366;27;45310;-88
2021/08/18 03:55:14;;;;;;;;;6.33;5.33;;;;;18.23;61.38;101650.31;5123381;27;45386;-87
2021/08/18 03:57:40;;;;;;;;;3.67;3.00;;;;;18.30;61.75;101664.53;5123376;27;46054;-86
2021/08/18 04:00:08;;;;;;;;;6.67;4.00;;;;;18.29;61.60;101655.66;5103449;27;45464;-89
2021/08/18 04:02:34;;;;;;;;;5.00;3.00;;;;;18.28;61.90;101662.72;5120802;27;45256;-91
2021/08/18 04:05:00;;;;;;;;;6.00;5.00;;;;;18.27;61.94;101660.06;5121178;27;45347;-86
2021/08/18 04:07:25;;;;;;;;;6.67;3.33;;;;;18.23;61.83;101658.31;5120999;27;46246;-88
2021/08/18 04:09:50;;;;;;;;;4.00;4.00;;;;;18.20;61.76;101650.31;5120457;27;45301;-89
2021/08/18 04:12:16;;;;;;;;;4.67;4.00;;;;;18.28;61.92;101670.72;5121160;27;45246;-85
2021/08/18 04:14:41;;;;;;;;;5.00;4.67;;;;;18.20;61.86;101651.19;5121477;27;45291;-87
2021/08/18 04:17:06;;;;;;;;;5.33;4.33;;;;;18.27;62.00;101670.72;5119846;27;45313;-86
2021/08/18 04:19:32;;;;;;;;;5.67;5.67;;;;;18.22;61.93;101656.50;5120544;27;45436;-87
2021/08/18 04:21:57;;;;;;;;;7.00;5.00;;;;;18.27;62.00;101660.06;5121294;27;45298;-87
2021/08/18 04:24:23;;;;;;;;;5.67;4.00;;;;;18.24;61.83;101652.97;5121989;27;45350;-87
2021/08/18 04:26:48;;;;;;;;;4.00;4.00;;;;;18.22;62.22;101661.84;5121702;27;46217;-87
2021/08/18 04:29:13;;;;;;;;;4.00;4.00;;;;;18.26;62.17;101660.94;5122113;27;45451;-86
2021/08/18 04:31:39;;;;;;;;;6.00;5.00;;;;;18.20;62.02;101658.28;5120325;27;45270;-87
2021/08/18 04:34:04;;;;;;;;;5.00;5.00;;;;;18.22;62.33;101657.41;5122388;27;45433;-87
2021/08/18 04:36:29;;;;;;;;;4.33;4.00;;;;;18.28;62.20;101677.81;5121740;27;45312;-86
2021/08/18 04:38:55;;;;;;;;;4.33;3.33;;;;;18.28;62.06;101678.69;5102469;27;45799;-87
2021/08/18 04:41:20;;;;;;;;;2.67;1.00;;;;;18.26;62.02;101669.81;5121132;27;45328;-88
2021/08/18 04:43:45;;;;;;;;;5.67;4.00;;;;;18.20;62.17;101666.28;5121613;27;45351;-88
2021/08/18 04:46:11;;;;;;;;;4.67;4.67;;;;;18.23;62.41;101672.47;5121499;27;46055;-85
2021/08/18 04:48:36;;;;;;;;;5.00;4.00;;;;;18.22;62.29;101667.16;5120945;27;45424;-89
2021/08/18 04:51:02;;;;;;;;;4.67;4.33;;;;;18.13;62.39;101655.59;5121276;27;45326;-88
2021/08/18 04:53:28;;;;;;;;;5.33;5.00;;;;;18.21;62.17;101663.59;5121886;27;45292;-91
2021/08/18 04:55:54;;;;;;;;;5.00;5.00;;;;;18.23;62.70;101671.63;5121037;27;45489;-87
2021/08/18 04:58:19;;;;;;;;;5.00;4.00;;;;;18.21;62.39;101665.41;5121428;27;45443;-87
2021/08/18 05:00:45;;;;;;;;;5.33;4.67;;;;;18.15;62.23;101660.91;5121387;27;45431;-89
2021/08/18 05:03:14;;;;;;;;;6.67;6.67;;;;;18.26;62.20;101668.94;5120967;27;45411;-88
2021/08/18 05:05:40;;;;;;;;;4.00;4.00;;;;;18.18;62.29;101650.31;5102174;27;46282;-88
2021/08/18 05:08:06;;;;;;;;;11.00;6.00;;;;;18.26;62.52;101672.50;5120122;27;45947;-88
2021/08/18 05:10:33;;;;;;;;;6.00;4.67;;;;;18.26;62.61;101663.59;5101142;27;45351;-87
2021/08/18 05:12:58;;;;;;;;;3.00;3.00;;;;;18.19;62.54;101661.84;5120290;27;45308;-88
2021/08/18 05:15:24;;;;;;;;;4.00;3.00;;;;;18.12;62.64;101636.97;5120057;27;45460;-87
2021/08/18 05:17:49;;;;;;;;;8.33;5.33;;;;;18.18;62.43;101660.97;5119547;27;45512;-89
2021/08/18 05:20:15;;;;;;;;;9.33;5.00;;;;;18.13;62.69;101658.25;5101788;27;45575;-86
2021/08/18 05:22:40;;;;;;;;;4.00;4.00;;;;;18.13;62.40;101652.94;5102278;27;45402;-88
2021/08/18 05:25:07;;;;;;;;;5.33;4.00;;;;;18.23;62.55;101671.63;5102188;27;47116;-86
2021/08/18 05:27:33;;;;;;;;;4.00;4.00;;;;;18.22;62.78;101678.69;5120429;27;45322;-89
2021/08/18 05:29:58;;;;;;;;;5.00;5.00;;;;;18.14;62.66;101659.16;5120786;27;45325;-88
2021/08/18 05:32:23;;;;;;;;;5.00;4.67;;;;;18.16;62.31;101663.59;5120098;27;45446;-88
2021/08/18 05:34:49;;;;;;;;;5.00;5.00;;;;;18.24;62.67;101676.94;5119346;27;46495;-87
2021/08/18 05:37:14;;;;;;;;;4.00;4.00;;;;;18.12;62.75;101655.59;5119663;27;45445;-88
2021/08/18 05:39:39;;;;;;;;;5.33;4.00;;;;;18.15;62.82;101666.22;5120072;27;45254;-89
2021/08/18 05:42:05;;;;;;;;;4.33;4.33;;;;;18.23;63.07;101674.28;5121730;27;45307;-90
2021/08/18 05:44:30;;;;;;;;;5.67;4.00;;;;;18.22;62.62;101677.81;5121526;27;45561;-86
2021/08/18 05:46:56;;;;;;;;;6.33;4.00;;;;;18.14;63.23;101660.03;5121428;27;45366;-86
2021/08/18 05:49:22;;;;;;;;;5.00;5.00;;;;;18.21;62.91;101676.91;5120776;27;45503;-86
2021/08/18 05:51:50;;;;;;;;;5.00;4.67;;;;;18.24;63.04;101686.69;5119591;27;45373;-86
2021/08/18 05:54:16;;;;;;;;;5.00;5.00;;;;;18.24;63.04;101686.69;5119524;27;45313;-88
2021/08/18 05:56:42;;;;;;;;;6.33;4.67;;;;;18.25;63.08;101691.13;5104683;27;45367;-78
2021/08/18 05:59:07;;;;;;;;;7.33;4.00;;;;;18.25;63.28;101683.16;5097034;27;45306;-78
2021/08/18 06:01:33;;;;;;;;;6.00;4.33;;;;;18.27;63.08;101694.69;5097395;27;45322;-78
2021/08/18 06:03:58;;;;;;;;;8.00;6.33;;;;;18.28;63.30;101681.38;5097404;27;46037;-78
2021/08/18 06:06:23;;;;;;;;;7.00;5.67;;;;;18.30;63.14;101685.81;5097378;27;45242;-78
2021/08/18 06:08:49;;;;;;;;;4.00;4.00;;;;;18.30;62.97;101691.13;5097615;27;45605;-77
2021/08/18 06:11:14;;;;;;;;;7.00;4.00;;;;;18.28;62.74;101692.00;5097345;27;45315;-78
2021/08/18 06:13:39;;;;;;;;;7.00;5.33;;;;;18.28;62.99;101691.13;5096928;27;46294;-78
2021/08/18 06:16:05;;;;;;;;;7.00;5.67;;;;;18.32;63.39;101692.88;5097115;27;45479;-79
2021/08/18 06:18:30;;;;;;;;;6.00;4.67;;;;;18.34;63.38;101692.91;5105962;27;45256;-78
2021/08/18 06:20:56;;;;;;;;;5.00;4.00;;;;;18.36;62.78;101692.00;5117573;27;45267;-79
2021/08/18 06:23:25;;;;;;;;;7.33;6.00;;;;;18.37;63.48;101700.88;5117154;27;46159;-79
2021/08/18 06:25:52;;;;;;;;;6.00;5.00;;;;;18.36;62.90;101702.66;5117294;27;45371;-78
2021/08/18 06:28:18;;;;;;;;;6.00;5.00;;;;;18.37;62.93;101695.56;5117877;27;45308;-78
2021/08/18 06:30:43;;;;;;;;;5.67;5.00;;;;;18.36;62.90;101694.66;5120790;27;45257;-79
2021/08/18 06:33:09;;;;;;;;;6.00;4.00;;;;;18.39;62.92;101694.69;5121004;27;45978;-78
2021/08/18 06:35:34;;;;;;;;;3.33;3.33;;;;;18.39;63.08;101702.66;5120701;27;45337;-77
2021/08/18 06:38:00;;;;;;;;;6.67;4.00;;;;;18.41;62.87;101694.66;5121195;27;45333;-79
2021/08/18 06:40:25;;;;;;;;;6.33;4.67;;;;;18.40;63.42;101699.09;5121601;27;45325;-78
2021/08/18 06:42:50;;;;;;;;;4.33;4.33;;;;;18.40;63.25;101701.75;5120978;27;46940;-78
2021/08/18 06:45:17;;;;;;;;;6.00;6.00;;;;;18.43;63.04;101707.97;5120652;27;45369;-79
2021/08/18 06:47:43;;;;;;;;;7.33;5.00;;;;;18.43;63.13;101716.84;5121424;27;45434;-78
2021/08/18 06:50:10;;;;;;;;;4.67;4.67;;;;;18.42;63.41;101707.09;5130167;27;44837;-75
2021/08/18 06:52:36;;;;;;;;;6.33;5.33;;;;;18.43;63.59;101702.66;5114975;27;46621;-78
2021/08/18 06:55:01;;;;;;;;;6.67;4.00;;;;;18.44;63.48;101705.34;5140281;27;44774;-83
2021/08/18 06:57:27;;;;;;;;;6.33;4.33;;;;;18.43;63.37;101702.66;5147400;27;44759;-83
2021/08/18 06:59:52;;;;;;;;;6.33;4.67;;;;;18.49;63.63;101714.19;5146859;27;44706;-83
2021/08/18 07:02:17;;;;;;;;;5.00;5.00;;;;;18.48;63.40;101706.22;5146802;27;45557;-82
2021/08/18 07:04:43;;;;;;;;;7.00;5.00;;;;;18.51;63.31;101706.19;5145554;27;44628;-85
2021/08/18 07:07:08;;;;;;;;;6.00;5.00;;;;;18.47;63.03;101694.66;5144989;27;44745;-85
2021/08/18 07:09:33;;;;;;;;;8.33;5.67;;;;;18.44;63.28;101688.47;5148263;27;44685;-84
2021/08/18 07:11:59;;;;;;;;;6.67;5.33;;;;;18.51;63.66;101692.88;5145335;27;46012;-84
2021/08/18 07:14:24;;;;;;;;;8.33;6.00;;;;;18.55;63.54;101697.31;5132739;27;45240;-82
2021/08/18 07:16:50;;;;;;;;;6.00;4.33;;;;;18.56;63.19;101692.88;5129388;27;45334;-82
2021/08/18 07:19:15;;;;;;;;;5.00;5.00;;;;;18.59;63.74;101703.56;5127546;27;45390;-83
2021/08/18 07:21:40;;;;;;;;;7.00;6.00;;;;;18.61;63.14;101692.00;5125240;27;46055;-82
2021/08/18 07:24:06;;;;;;;;;7.33;5.00;;;;;18.63;63.31;101690.22;5124412;27;45386;-81
2021/08/18 07:26:32;;;;;;;;;6.00;6.00;;;;;18.65;63.69;101697.31;5124074;27;45298;-82
2021/08/18 07:28:58;;;;;;;;;6.67;5.00;;;;;18.69;63.49;101693.78;5124277;27;45728;-83
2021/08/18 07:31:25;;;;;;;;;5.33;4.33;;;;;18.68;63.13;101676.91;5123212;27;45326;-83
2021/08/18 07:33:50;;;;;;;;;7.67;4.67;;;;;18.72;63.88;101677.78;5122871;27;45489;-83
2021/08/18 07:36:16;;;;;;;;;6.00;6.00;;;;;18.82;63.38;101684.88;5123283;27;45321;-82
2021/08/18 07:38:41;;;;;;;;;6.00;3.00;;;;;18.92;63.39;101695.50;5122990;27;46566;-82
2021/08/18 07:41:07;;;;;;;;;5.00;4.00;;;;;18.94;62.91;101688.41;5121368;27;45439;-83
2021/08/18 07:43:32;;;;;;;;;3.33;3.33;;;;;19.00;62.84;101691.03;5122144;27;45535;-83
2021/08/18 07:45:58;;;;;;;;;4.67;3.33;;;;;19.03;62.62;101685.72;5122204;27;45314;-84
2021/08/18 07:48:23;;;;;;;;;4.33;4.33;;;;;19.09;62.43;101682.13;5121412;27;45397;-83
2021/08/18 07:50:49;;;;;;;;;5.00;3.67;;;;;19.13;62.79;101678.56;5120890;27;46450;-83
2021/08/18 07:53:14;;;;;;;;;5.33;3.67;;;;;19.19;62.29;101685.69;5120781;27;45279;-83
2021/08/18 07:55:40;;;;;;;;;5.33;3.33;;;;;19.19;62.19;101681.25;5121055;27;45331;-81
2021/08/18 07:58:05;;;;;;;;;4.00;3.00;;;;;19.27;62.35;101680.34;5120622;27;45496;-82
2021/08/18 08:00:31;;;;;;;;;4.67;3.00;;;;;19.32;62.23;101683.88;5119875;27;46689;-82
2021/08/18 08:02:57;;;;;;;;;6.67;4.00;;;;;19.38;62.06;101691.84;5120166;27;45342;-83
2021/08/18 08:05:22;;;;;;;;;4.00;3.00;;;;;19.43;62.33;101689.16;5120430;27;45360;-83
2021/08/18 08:07:47;;;;;;;;;3.00;3.00;;;;;19.42;61.88;101685.59;5120040;27;45369;-82
2021/08/18 08:10:13;;;;;;;;;4.00;3.67;;;;;19.49;61.65;101689.13;5119382;27;46036;-83
2021/08/18 08:12:40;;;;;;;;;3.67;2.67;;;;;19.48;61.52;101687.34;5101035;27;45383;-83
2021/08/18 08:15:08;;;;;;;;;5.67;4.00;;;;;19.50;61.84;101680.22;5119872;27;45878;-83
2021/08/18 08:17:33;;;;;;;;;4.00;3.00;;;;;19.55;61.82;101688.22;5120514;27;45387;-82
2021/08/18 08:19:59;;;;;;;;;4.67;3.00;;;;;19.61;61.70;101684.63;5120190;27;46036;-83
2021/08/18 08:22:25;;;;;;;;;5.33;4.67;;;;;19.64;61.49;101688.16;5119862;27;45319;-83
2021/08/18 08:24:50;;;;;;;;;4.00;3.33;;;;;19.73;61.89;101694.34;5120184;27;45330;-83
2021/08/18 08:27:15;;;;;;;;;8.00;5.33;;;;;19.78;61.35;101689.84;5121325;27;45266;-83
2021/08/18 08:29:41;;;;;;;;;7.67;5.67;;;;;19.87;61.27;101683.59;5121758;27;47317;-83
2021/08/18 08:32:08;;;;;;;;;4.67;4.33;;;;;19.90;61.32;101681.78;5121552;27;45384;-81
2021/08/18 08:34:34;;;;;;;;;6.00;4.33;;;;;19.92;61.02;101684.47;5121177;27;45345;-81
2021/08/18 08:36:59;;;;;;;;;3.00;3.00;;;;;19.97;60.96;101690.63;5122592;27;45274;-82
2021/08/18 08:39:24;;;;;;;;;5.00;4.00;;;;;19.94;60.92;101681.78;5121514;27;45446;-81
2021/08/18 08:41:50;;;;;;;;;1.33;1.33;;;;;20.00;60.99;101701.31;5121515;27;45400;-81
2021/08/18 08:44:18;;;;;;;;;6.00;4.33;;;;;20.01;60.61;101684.38;5121554;27;45207;-83
2021/08/18 08:46:48;;;;;;;;;5.67;4.67;;;;;20.08;60.73;101703.00;5120421;27;45452;-84
2021/08/18 08:49:18;;;;;;;;;4.33;3.00;;;;;20.09;60.50;101697.72;5120434;27;46417;-84
2021/08/18 08:51:48;;;;;;;;;4.33;4.33;;;;;20.15;60.60;101696.78;5119195;27;45427;-86
2021/08/18 08:54:15;;;;;;;;;3.00;3.00;;;;;20.23;60.19;101694.94;5120803;27;45416;-82
2021/08/18 08:56:40;;;;;;;;;6.00;3.33;;;;;20.27;60.17;101695.78;5119958;27;45428;-84
2021/08/18 08:59:06;;;;;;;;;5.00;4.00;;;;;20.25;59.93;101693.16;5118334;27;47545;-84
2021/08/18 09:02:09;;;;;;;;;4.00;4.00;;;;;20.32;59.73;101709.13;5120042;27;45342;-83
2021/08/18 09:04:37;;;;;;;;;6.00;5.33;;;;;20.32;59.69;101693.09;5120106;27;45320;-86
2021/08/18 09:07:06;;;;;;;;;4.67;4.00;;;;;20.41;59.81;101705.50;5119998;27;45345;-87
2021/08/18 09:09:32;;;;;;;;;5.00;5.00;;;;;20.47;59.67;101690.28;5120484;27;46130;-85
2021/08/18 09:12:08;;;;;;;;;6.33;4.00;;;;;20.48;58.95;101700.06;5119834;27;45449;-85
2021/08/18 09:14:34;;;;;;;;;5.00;5.00;;;;;20.46;58.73;101701.88;5119368;27;45463;-84
2021/08/18 09:17:00;;;;;;;;;4.00;3.33;;;;;20.48;59.11;101693.84;5120401;27;45296;-85
2021/08/18 09:19:31;;;;;;;;;3.33;3.33;;;;;20.51;59.08;101687.59;5119611;27;46086;-84
2021/08/18 09:22:07;;;;;;;;;5.00;4.00;;;;;20.60;59.23;101696.41;5119920;27;45353;-83
2021/08/18 09:24:33;;;;;;;;;4.00;4.00;;;;;20.72;59.38;101691.84;5120105;27;45397;-84
2021/08/18 09:27:07;;;;;;;;;5.00;4.00;;;;;20.82;59.23;101692.63;5119662;27;45337;-83
2021/08/18 09:29:43;;;;;;;;;4.67;4.67;;;;;20.91;58.55;101697.00;5119171;27;46830;-84
2021/08/18 09:32:23;;;;;;;;;3.33;3.33;;;;;20.91;58.57;101691.66;5101027;27;45581;-83
2021/08/18 09:35:17;;;;;;;;;4.33;4.00;;;;;20.96;58.20;101695.19;5119645;27;45273;-83
2021/08/18 09:37:44;;;;;;;;;3.00;3.00;;;;;20.97;58.54;101691.59;5099236;27;45280;-84
2021/08/18 09:40:30;;;;;;;;;7.33;5.00;;;;;21.01;58.16;101687.13;5124613;27;46209;-83
2021/08/18 09:43:14;;;;;;;;;3.00;3.00;;;;;21.09;57.86;101684.38;5121847;27;45731;-86
2021/08/18 09:45:44;;;;;;;;;4.00;4.00;;;;;21.15;58.34;101674.47;5121242;27;45356;-86
2021/08/18 09:48:19;;;;;;;;;4.00;4.00;;;;;21.22;57.70;101682.41;5122057;27;45517;-85
2021/08/18 09:50:49;;;;;;;;;4.33;4.00;;;;;21.29;57.67;101684.13;5127823;27;48460;-85
2021/08/18 09:53:24;;;;;;;;;3.00;3.00;;;;;21.28;57.52;101690.38;5130130;27;45365;-84
2021/08/18 09:55:55;;;;;;;;;4.67;3.67;;;;;21.26;57.64;101692.16;5130008;27;45348;-81
2021/08/18 09:58:27;;;;;;;;;3.33;3.00;;;;;21.20;58.46;101693.13;5110922;27;45292;-83
2021/08/18 10:00:55;;;;;;;;;3.00;3.00;;;;;21.00;58.96;101686.25;5126822;27;47003;-83
2021/08/18 10:03:23;;;;;;;;;4.00;4.00;;;;;20.98;59.32;101692.50;5125712;27;45403;-83
2021/08/18 10:05:50;;;;;;;;;4.00;2.00;;;;;20.96;59.44;101692.50;5125504;27;44768;-82
2021/08/18 10:08:17;;;;;;;;;3.00;3.00;;;;;20.90;59.13;101680.06;5126868;27;45652;-82
2021/08/18 10:10:42;;;;;;;;;3.00;3.00;;;;;20.92;59.86;101683.63;5121817;27;45375;-86
2021/08/18 10:13:09;;;;;;;;;1.00;1.00;;;;;20.89;59.26;101681.00;5120096;27;45433;-83
2021/08/18 10:15:36;;;;;;;;;2.33;2.33;;;;;20.94;59.36;101686.25;5119456;27;45264;-84
2021/08/18 10:18:02;;;;;;;;;3.00;3.00;;;;;20.95;58.38;101680.03;5119400;27;45520;-83
2021/08/18 10:20:29;;;;;;;;;2.00;2.00;;;;;20.96;58.57;101675.56;5118579;27;46297;-83
2021/08/18 10:23:12;;;;;;;;;4.00;2.00;;;;;20.99;58.16;101687.13;5118431;27;45336;-83
2021/08/18 10:25:45;;;;;;;;;1.33;1.33;;;;;21.01;58.44;101682.66;5118946;27;45381;-84
2021/08/18 10:28:11;;;;;;;;;2.00;2.00;;;;;20.97;58.11;101667.53;5118434;27;45483;-84
2021/08/18 10:30:53;;;;;;;;;1.00;1.00;;;;;21.06;58.27;101669.25;5118543;27;45287;-82
2021/08/18 10:33:55;;;;;;;;;3.33;2.33;;;;;21.12;58.53;101679.88;5117933;27;45452;-83
2021/08/18 10:36:42;;;;;;;;;3.33;3.33;;;;;21.15;58.61;101671.78;5119978;27;45286;-83
2021/08/18 10:39:24;;;;;;;;;4.00;3.00;;;;;21.21;58.34;101678.88;5118613;27;45346;-84
2021/08/18 10:41:58;;;;;;;;;3.00;2.00;;;;;21.27;58.83;101672.56;5118349;27;45603;-83
2021/08/18 10:44:53;;;;;;;;;2.33;1.33;;;;;21.38;57.61;101675.09;5118600;27;45336;-85
2021/08/18 10:47:27;;;;;;;;;2.00;2.00;;;;;21.55;58.14;101672.22;5116636;27;45456;-87
2021/08/18 10:49:57;;;;;;;;;3.33;1.33;;;;;21.80;57.36;101662.94;5120429;27;45366;-84
2021/08/18 10:52:28;;;;;;;;;5.00;3.00;;;;;22.00;57.74;101659.09;5118834;27;46588;-83
2021/08/18 10:55:18;;;;;;;;;5.00;4.00;;;;;22.11;56.54;101649.09;5119642;27;45369;-84
2021/08/18 10:57:56;;;;;;;;;6.00;4.67;;;;;22.27;56.69;101664.91;5121643;27;45365;-86
2021/08/18 11:00:41;;;;;;;;;5.00;5.00;;;;;22.39;55.94;101661.13;5120151;27;45271;-83
2021/08/18 11:03:07;;;;;;;;;4.67;4.67;;;;;22.48;57.02;101658.31;5120408;27;46578;-82
2021/08/18 11:05:39;;;;;;;;;6.00;4.33;;;;;22.53;55.61;101660.88;5119309;27;45279;-81
2021/08/18 11:08:08;;;;;;;;;5.00;4.00;;;;;22.47;55.11;101644.91;5118048;27;45390;-82
2021/08/18 11:10:50;;;;;;;;;4.00;4.00;;;;;22.47;56.12;101655.63;5119198;27;45412;-83
2021/08/18 11:13:17;;;;;;;;;6.67;6.00;;;;;22.44;55.47;101641.38;5119720;27;47215;-85
2021/08/18 11:15:42;;;;;;;;;6.00;5.00;;;;;22.46;55.32;101648.53;5122520;27;45331;-86
2021/08/18 11:18:09;;;;;;;;;6.67;6.00;;;;;22.44;55.06;101643.19;5123997;27;45401;-83
2021/08/18 11:20:35;;;;;;;;;4.67;4.67;;;;;22.45;54.98;101647.63;5105911;27;45331;-83
2021/08/18 11:23:06;;;;;;;;;8.00;6.67;;;;;22.47;55.41;101647.59;5122635;27;45472;-82
2021/08/18 11:25:41;;;;;;;;;6.67;6.67;;;;;22.46;54.83;101636.00;5122459;27;45450;-81